sensor_id;sensor_type;location;lat;lon;timestamp;P1;durP1;ratioP1;P2;durP2;ratioP2
12758;SDS011;20944;47.048;15.390;2024-01-06T00:01:26;9.07;;;4.60;;
12758;SDS011;20944;47.048;15.390;2024-01-06T00:03:55;7.73;;;4.80;;
12758;SDS011;20944;47.048;15.390;2024-01-06T00:06:23;10.00;;;4.37;;
12758;SDS011;20944;47.048;15.390;2024-01-06T00:08:52;9.80;;;4.67;;
12758;SDS011;20944;47.048;15.390;2024-01-06T00:11:21;7.03;;;3.70;;
12758;SDS011;20944;47.048;15.390;2024-01-06T00:13:52;11.63;;;3.73;;
12758;SDS011;20944;47.048;15.390;2024-01-06T00:16:20;8.93;;;4.30;;
12758;SDS011;20944;47.048;15.390;2024-01-06T00:18:53;8.27;;;3.90;;
12758;SDS011;20944;47.048;15.390;2024-01-06T00:21:22;7.57;;;3.93;;
12758;SDS011;20944;47.048;15.390;2024-01-06T00:23:50;7.93;;;3.90;;
12758;SDS011;20944;47.048;15.390;2024-01-06T00:26:19;6.37;;;3.83;;
12758;SDS011;20944;47.048;15.390;2024-01-06T00:28:47;10.27;;;4.30;;
12758;SDS011;20944;47.048;15.390;2024-01-06T00:31:18;7.23;;;3.57;;
12758;SDS011;20944;47.048;15.390;2024-01-06T00:33:46;6.57;;;3.60;;
12758;SDS011;20944;47.048;15.390;2024-01-06T00:36:15;4.40;;;2.73;;
12758;SDS011;20944;47.048;15.390;2024-01-06T00:38:44;8.20;;;3.47;;
12758;SDS011;20944;47.048;15.390;2024-01-06T00:41:13;9.57;;;4.07;;
12758;SDS011;20944;47.048;15.390;2024-01-06T00:43:42;9.07;;;3.40;;
12758;SDS011;20944;47.048;15.390;2024-01-06T00:46:10;7.50;;;4.53;;
12758;SDS011;20944;47.048;15.390;2024-01-06T00:48:41;5.53;;;3.73;;
12758;SDS011;20944;47.048;15.390;2024-01-06T00:51:09;5.50;;;3.63;;
12758;SDS011;20944;47.048;15.390;2024-01-06T00:53:38;6.23;;;3.80;;
12758;SDS011;20944;47.048;15.390;2024-01-06T00:56:07;11.10;;;4.33;;
12758;SDS011;20944;47.048;15.390;2024-01-06T00:58:35;7.57;;;4.00;;
12758;SDS011;20944;47.048;15.390;2024-01-06T01:01:04;5.30;;;3.23;;
12758;SDS011;20944;47.048;15.390;2024-01-06T01:03:32;6.27;;;3.10;;
12758;SDS011;20944;47.048;15.390;2024-01-06T01:06:02;8.10;;;3.20;;
12758;SDS011;20944;47.048;15.390;2024-01-06T01:08:30;6.30;;;3.30;;
12758;SDS011;20944;47.048;15.390;2024-01-06T01:10:59;8.13;;;3.53;;
12758;SDS011;20944;47.048;15.390;2024-01-06T01:13:28;10.73;;;3.57;;
12758;SDS011;20944;47.048;15.390;2024-01-06T01:15:56;6.53;;;3.80;;
12758;SDS011;20944;47.048;15.390;2024-01-06T01:18:25;5.47;;;3.40;;
12758;SDS011;20944;47.048;15.390;2024-01-06T01:20:53;6.53;;;3.17;;
12758;SDS011;20944;47.048;15.390;2024-01-06T01:23:23;8.10;;;4.03;;
12758;SDS011;20944;47.048;15.390;2024-01-06T01:25:53;7.67;;;3.70;;
12758;SDS011;20944;47.048;15.390;2024-01-06T01:28:22;12.33;;;4.40;;
12758;SDS011;20944;47.048;15.390;2024-01-06T01:30:50;7.90;;;3.93;;
12758;SDS011;20944;47.048;15.390;2024-01-06T01:33:19;5.17;;;2.93;;
12758;SDS011;20944;47.048;15.390;2024-01-06T01:35:48;5.83;;;3.10;;
12758;SDS011;20944;47.048;15.390;2024-01-06T01:38:16;7.80;;;3.20;;
12758;SDS011;20944;47.048;15.390;2024-01-06T01:40:46;7.30;;;3.13;;
12758;SDS011;20944;47.048;15.390;2024-01-06T01:43:18;7.27;;;3.47;;
12758;SDS011;20944;47.048;15.390;2024-01-06T01:45:48;5.47;;;2.73;;
12758;SDS011;20944;47.048;15.390;2024-01-06T01:48:22;6.50;;;2.70;;
12758;SDS011;20944;47.048;15.390;2024-01-06T01:50:52;6.97;;;3.03;;
12758;SDS011;20944;47.048;15.390;2024-01-06T01:53:22;7.07;;;3.03;;
12758;SDS011;20944;47.048;15.390;2024-01-06T01:55:54;7.40;;;3.67;;
12758;SDS011;20944;47.048;15.390;2024-01-06T01:58:23;5.33;;;2.60;;
12758;SDS011;20944;47.048;15.390;2024-01-06T02:00:52;8.93;;;3.63;;
12758;SDS011;20944;47.048;15.390;2024-01-06T02:03:21;5.53;;;3.00;;
12758;SDS011;20944;47.048;15.390;2024-01-06T02:05:52;9.60;;;3.63;;
12758;SDS011;20944;47.048;15.390;2024-01-06T02:08:20;9.40;;;3.47;;
12758;SDS011;20944;47.048;15.390;2024-01-06T02:10:49;5.13;;;2.90;;
12758;SDS011;20944;47.048;15.390;2024-01-06T02:13:19;3.53;;;2.53;;
12758;SDS011;20944;47.048;15.390;2024-01-06T02:15:48;6.07;;;3.13;;
12758;SDS011;20944;47.048;15.390;2024-01-06T02:18:17;6.10;;;3.00;;
12758;SDS011;20944;47.048;15.390;2024-01-06T02:20:45;5.50;;;3.17;;
12758;SDS011;20944;47.048;15.390;2024-01-06T02:23:17;4.20;;;2.60;;
12758;SDS011;20944;47.048;15.390;2024-01-06T02:25:45;5.33;;;2.87;;
12758;SDS011;20944;47.048;15.390;2024-01-06T02:28:14;4.80;;;2.83;;
12758;SDS011;20944;47.048;15.390;2024-01-06T02:30:43;5.20;;;2.43;;
12758;SDS011;20944;47.048;15.390;2024-01-06T02:33:12;4.83;;;2.23;;
12758;SDS011;20944;47.048;15.390;2024-01-06T02:35:40;8.30;;;3.30;;
12758;SDS011;20944;47.048;15.390;2024-01-06T02:38:09;6.53;;;2.90;;
12758;SDS011;20944;47.048;15.390;2024-01-06T02:40:39;5.27;;;2.83;;
12758;SDS011;20944;47.048;15.390;2024-01-06T02:43:09;4.53;;;2.90;;
12758;SDS011;20944;47.048;15.390;2024-01-06T02:45:37;4.87;;;3.07;;
12758;SDS011;20944;47.048;15.390;2024-01-06T02:48:06;6.37;;;2.80;;
12758;SDS011;20944;47.048;15.390;2024-01-06T02:50:35;7.67;;;3.50;;
12758;SDS011;20944;47.048;15.390;2024-01-06T02:53:03;6.90;;;2.80;;
12758;SDS011;20944;47.048;15.390;2024-01-06T02:55:32;7.87;;;3.57;;
12758;SDS011;20944;47.048;15.390;2024-01-06T02:58:02;6.57;;;3.40;;
12758;SDS011;20944;47.048;15.390;2024-01-06T03:00:31;11.03;;;3.03;;
12758;SDS011;20944;47.048;15.390;2024-01-06T03:02:59;4.50;;;2.50;;
12758;SDS011;20944;47.048;15.390;2024-01-06T03:05:28;5.53;;;3.03;;
12758;SDS011;20944;47.048;15.390;2024-01-06T03:07:56;5.50;;;3.20;;
12758;SDS011;20944;47.048;15.390;2024-01-06T03:10:25;9.67;;;3.03;;
12758;SDS011;20944;47.048;15.390;2024-01-06T03:12:54;10.37;;;3.63;;
12758;SDS011;20944;47.048;15.390;2024-01-06T03:15:24;3.43;;;2.03;;
12758;SDS011;20944;47.048;15.390;2024-01-06T03:17:53;8.27;;;3.63;;
12758;SDS011;20944;47.048;15.390;2024-01-06T03:20:22;5.53;;;3.00;;
12758;SDS011;20944;47.048;15.390;2024-01-06T03:22:50;4.13;;;2.50;;
12758;SDS011;20944;47.048;15.390;2024-01-06T03:25:19;6.97;;;3.33;;
12758;SDS011;20944;47.048;15.390;2024-01-06T03:27:47;7.03;;;3.03;;
12758;SDS011;20944;47.048;15.390;2024-01-06T03:30:16;5.67;;;2.97;;
12758;SDS011;20944;47.048;15.390;2024-01-06T03:32:46;6.33;;;3.33;;
12758;SDS011;20944;47.048;15.390;2024-01-06T03:35:14;4.97;;;2.70;;
12758;SDS011;20944;47.048;15.390;2024-01-06T03:37:43;5.07;;;2.67;;
12758;SDS011;20944;47.048;15.390;2024-01-06T03:40:12;8.67;;;3.33;;
12758;SDS011;20944;47.048;15.390;2024-01-06T03:42:40;6.70;;;3.63;;
12758;SDS011;20944;47.048;15.390;2024-01-06T03:45:09;6.57;;;3.30;;
12758;SDS011;20944;47.048;15.390;2024-01-06T03:47:37;5.80;;;2.73;;
12758;SDS011;20944;47.048;15.390;2024-01-06T03:50:08;5.60;;;2.73;;
12758;SDS011;20944;47.048;15.390;2024-01-06T03:52:37;6.03;;;3.03;;
12758;SDS011;20944;47.048;15.390;2024-01-06T03:55:06;6.27;;;3.27;;
12758;SDS011;20944;47.048;15.390;2024-01-06T03:57:34;8.83;;;3.00;;
12758;SDS011;20944;47.048;15.390;2024-01-06T04:00:04;6.40;;;3.10;;
12758;SDS011;20944;47.048;15.390;2024-01-06T04:02:34;5.07;;;2.17;;
12758;SDS011;20944;47.048;15.390;2024-01-06T04:05:03;4.83;;;2.60;;
12758;SDS011;20944;47.048;15.390;2024-01-06T04:07:34;5.23;;;2.70;;
12758;SDS011;20944;47.048;15.390;2024-01-06T04:10:02;6.07;;;2.67;;
12758;SDS011;20944;47.048;15.390;2024-01-06T04:12:31;9.83;;;3.00;;
12758;SDS011;20944;47.048;15.390;2024-01-06T04:15:00;5.20;;;3.10;;
12758;SDS011;20944;47.048;15.390;2024-01-06T04:17:28;6.67;;;3.07;;
12758;SDS011;20944;47.048;15.390;2024-01-06T04:19:57;5.77;;;3.33;;
12758;SDS011;20944;47.048;15.390;2024-01-06T04:22:26;4.00;;;2.57;;
12758;SDS011;20944;47.048;15.390;2024-01-06T04:24:56;4.83;;;2.40;;
12758;SDS011;20944;47.048;15.390;2024-01-06T04:27:24;5.43;;;2.83;;
12758;SDS011;20944;47.048;15.390;2024-01-06T04:29:53;3.97;;;2.37;;
12758;SDS011;20944;47.048;15.390;2024-01-06T04:32:21;5.23;;;2.67;;
12758;SDS011;20944;47.048;15.390;2024-01-06T04:34:50;7.17;;;2.80;;
12758;SDS011;20944;47.048;15.390;2024-01-06T04:37:19;5.67;;;2.57;;
12758;SDS011;20944;47.048;15.390;2024-01-06T04:39:47;7.57;;;3.40;;
12758;SDS011;20944;47.048;15.390;2024-01-06T04:42:17;9.97;;;3.30;;
12758;SDS011;20944;47.048;15.390;2024-01-06T04:44:49;4.57;;;2.40;;
12758;SDS011;20944;47.048;15.390;2024-01-06T04:47:17;4.17;;;2.67;;
12758;SDS011;20944;47.048;15.390;2024-01-06T04:49:46;9.03;;;2.63;;
12758;SDS011;20944;47.048;15.390;2024-01-06T04:52:15;6.03;;;2.50;;
12758;SDS011;20944;47.048;15.390;2024-01-06T04:54:43;6.93;;;2.63;;
12758;SDS011;20944;47.048;15.390;2024-01-06T04:57:12;4.33;;;2.80;;
12758;SDS011;20944;47.048;15.390;2024-01-06T04:59:42;5.23;;;2.47;;
12758;SDS011;20944;47.048;15.390;2024-01-06T05:02:10;5.73;;;2.67;;
12758;SDS011;20944;47.048;15.390;2024-01-06T05:04:39;5.17;;;2.63;;
12758;SDS011;20944;47.048;15.390;2024-01-06T05:07:07;7.47;;;3.33;;
12758;SDS011;20944;47.048;15.390;2024-01-06T05:09:36;5.03;;;2.93;;
12758;SDS011;20944;47.048;15.390;2024-01-06T05:12:04;4.43;;;2.90;;
12758;SDS011;20944;47.048;15.390;2024-01-06T05:14:33;5.33;;;2.07;;
12758;SDS011;20944;47.048;15.390;2024-01-06T05:17:03;6.00;;;2.60;;
12758;SDS011;20944;47.048;15.390;2024-01-06T05:19:32;5.87;;;2.70;;
12758;SDS011;20944;47.048;15.390;2024-01-06T05:22:01;5.03;;;2.63;;
12758;SDS011;20944;47.048;15.390;2024-01-06T05:24:30;3.73;;;2.37;;
12758;SDS011;20944;47.048;15.390;2024-01-06T05:26:58;8.13;;;2.40;;
12758;SDS011;20944;47.048;15.390;2024-01-06T05:29:27;4.57;;;2.43;;
12758;SDS011;20944;47.048;15.390;2024-01-06T05:31:55;4.53;;;2.17;;
12758;SDS011;20944;47.048;15.390;2024-01-06T05:34:26;3.93;;;1.80;;
12758;SDS011;20944;47.048;15.390;2024-01-06T05:36:54;5.03;;;2.37;;
12758;SDS011;20944;47.048;15.390;2024-01-06T05:39:23;3.30;;;2.63;;
12758;SDS011;20944;47.048;15.390;2024-01-06T05:41:52;3.63;;;2.40;;
12758;SDS011;20944;47.048;15.390;2024-01-06T05:44:20;3.07;;;2.17;;
12758;SDS011;20944;47.048;15.390;2024-01-06T05:46:49;3.73;;;2.13;;
12758;SDS011;20944;47.048;15.390;2024-01-06T05:49:18;4.80;;;2.50;;
12758;SDS011;20944;47.048;15.390;2024-01-06T05:51:48;4.97;;;2.53;;
12758;SDS011;20944;47.048;15.390;2024-01-06T05:54:17;5.13;;;2.27;;
12758;SDS011;20944;47.048;15.390;2024-01-06T05:56:46;4.40;;;2.50;;
12758;SDS011;20944;47.048;15.390;2024-01-06T05:59:14;4.33;;;2.47;;
12758;SDS011;20944;47.048;15.390;2024-01-06T06:01:43;3.77;;;2.63;;
12758;SDS011;20944;47.048;15.390;2024-01-06T06:04:11;4.23;;;2.50;;
12758;SDS011;20944;47.048;15.390;2024-01-06T06:06:40;5.57;;;2.53;;
12758;SDS011;20944;47.048;15.390;2024-01-06T06:09:10;4.47;;;2.80;;
12758;SDS011;20944;47.048;15.390;2024-01-06T06:11:39;5.27;;;2.60;;
12758;SDS011;20944;47.048;15.390;2024-01-06T06:14:08;5.20;;;2.00;;
12758;SDS011;20944;47.048;15.390;2024-01-06T06:16:36;4.10;;;2.17;;
12758;SDS011;20944;47.048;15.390;2024-01-06T06:19:05;3.53;;;2.43;;
12758;SDS011;20944;47.048;15.390;2024-01-06T06:21:34;4.40;;;2.33;;
12758;SDS011;20944;47.048;15.390;2024-01-06T06:24:03;4.20;;;2.40;;
12758;SDS011;20944;47.048;15.390;2024-01-06T06:26:33;4.90;;;2.53;;
12758;SDS011;20944;47.048;15.390;2024-01-06T06:29:05;6.87;;;2.60;;
12758;SDS011;20944;47.048;15.390;2024-01-06T06:31:34;4.77;;;2.23;;
12758;SDS011;20944;47.048;15.390;2024-01-06T06:34:02;2.23;;;2.03;;
12758;SDS011;20944;47.048;15.390;2024-01-06T06:36:34;4.53;;;2.43;;
12758;SDS011;20944;47.048;15.390;2024-01-06T06:39:03;4.40;;;2.43;;
12758;SDS011;20944;47.048;15.390;2024-01-06T06:41:32;4.57;;;2.60;;
12758;SDS011;20944;47.048;15.390;2024-01-06T06:44:01;5.53;;;2.50;;
12758;SDS011;20944;47.048;15.390;2024-01-06T06:46:30;6.43;;;2.60;;
12758;SDS011;20944;47.048;15.390;2024-01-06T06:48:59;4.70;;;2.70;;
12758;SDS011;20944;47.048;15.390;2024-01-06T06:51:28;3.33;;;2.27;;
12758;SDS011;20944;47.048;15.390;2024-01-06T06:53:57;4.37;;;2.43;;
12758;SDS011;20944;47.048;15.390;2024-01-06T06:56:25;5.13;;;2.37;;
12758;SDS011;20944;47.048;15.390;2024-01-06T06:58:55;5.67;;;2.50;;
12758;SDS011;20944;47.048;15.390;2024-01-06T07:01:24;4.73;;;3.00;;
12758;SDS011;20944;47.048;15.390;2024-01-06T07:03:52;4.97;;;3.07;;
12758;SDS011;20944;47.048;15.390;2024-01-06T07:06:21;9.60;;;3.50;;
12758;SDS011;20944;47.048;15.390;2024-01-06T07:08:50;4.23;;;3.20;;
12758;SDS011;20944;47.048;15.390;2024-01-06T07:11:19;3.93;;;2.80;;
12758;SDS011;20944;47.048;15.390;2024-01-06T07:13:48;5.37;;;2.80;;
12758;SDS011;20944;47.048;15.390;2024-01-06T07:16:18;10.80;;;3.83;;
12758;SDS011;20944;47.048;15.390;2024-01-06T07:18:46;4.97;;;2.30;;
12758;SDS011;20944;47.048;15.390;2024-01-06T07:21:15;8.30;;;3.40;;
12758;SDS011;20944;47.048;15.390;2024-01-06T07:23:44;6.60;;;3.60;;
12758;SDS011;20944;47.048;15.390;2024-01-06T07:26:12;5.27;;;3.07;;
12758;SDS011;20944;47.048;15.390;2024-01-06T07:28:40;5.57;;;3.03;;
12758;SDS011;20944;47.048;15.390;2024-01-06T07:31:09;6.93;;;2.70;;
12758;SDS011;20944;47.048;15.390;2024-01-06T07:33:39;5.33;;;2.80;;
12758;SDS011;20944;47.048;15.390;2024-01-06T07:36:07;4.87;;;2.87;;
12758;SDS011;20944;47.048;15.390;2024-01-06T07:38:36;6.17;;;2.77;;
12758;SDS011;20944;47.048;15.390;2024-01-06T07:41:04;8.47;;;2.60;;
12758;SDS011;20944;47.048;15.390;2024-01-06T07:43:34;5.47;;;3.03;;
12758;SDS011;20944;47.048;15.390;2024-01-06T07:46:03;5.03;;;2.67;;
12758;SDS011;20944;47.048;15.390;2024-01-06T07:48:33;5.60;;;2.93;;
12758;SDS011;20944;47.048;15.390;2024-01-06T07:51:04;9.20;;;3.20;;
12758;SDS011;20944;47.048;15.390;2024-01-06T07:53:32;4.47;;;2.67;;
12758;SDS011;20944;47.048;15.390;2024-01-06T07:56:01;5.00;;;3.17;;
12758;SDS011;20944;47.048;15.390;2024-01-06T07:58:29;4.37;;;3.30;;
12758;SDS011;20944;47.048;15.390;2024-01-06T08:00:58;3.30;;;2.63;;
12758;SDS011;20944;47.048;15.390;2024-01-06T08:03:27;5.80;;;3.50;;
12758;SDS011;20944;47.048;15.390;2024-01-06T08:05:55;6.00;;;3.23;;
12758;SDS011;20944;47.048;15.390;2024-01-06T08:08:26;9.57;;;4.23;;
12758;SDS011;20944;47.048;15.390;2024-01-06T08:10:55;7.73;;;4.70;;
12758;SDS011;20944;47.048;15.390;2024-01-06T08:13:24;8.03;;;4.50;;
12758;SDS011;20944;47.048;15.390;2024-01-06T08:15:53;10.53;;;4.87;;
12758;SDS011;20944;47.048;15.390;2024-01-06T08:18:22;9.03;;;4.17;;
12758;SDS011;20944;47.048;15.390;2024-01-06T08:20:51;7.43;;;4.13;;
12758;SDS011;20944;47.048;15.390;2024-01-06T08:23:19;6.50;;;3.87;;
12758;SDS011;20944;47.048;15.390;2024-01-06T08:25:49;7.40;;;3.77;;
12758;SDS011;20944;47.048;15.390;2024-01-06T08:28:18;9.67;;;3.17;;
12758;SDS011;20944;47.048;15.390;2024-01-06T08:30:46;7.03;;;3.33;;
12758;SDS011;20944;47.048;15.390;2024-01-06T08:33:14;5.47;;;3.67;;
12758;SDS011;20944;47.048;15.390;2024-01-06T08:35:44;8.70;;;3.50;;
12758;SDS011;20944;47.048;15.390;2024-01-06T08:38:13;4.50;;;3.03;;
12758;SDS011;20944;47.048;15.390;2024-01-06T08:40:41;7.53;;;3.97;;
12758;SDS011;20944;47.048;15.390;2024-01-06T08:43:12;6.87;;;3.43;;
12758;SDS011;20944;47.048;15.390;2024-01-06T08:45:40;5.57;;;3.37;;
12758;SDS011;20944;47.048;15.390;2024-01-06T08:48:09;10.27;;;3.97;;
12758;SDS011;20944;47.048;15.390;2024-01-06T08:50:38;4.53;;;3.40;;
12758;SDS011;20944;47.048;15.390;2024-01-06T08:53:06;8.03;;;4.53;;
12758;SDS011;20944;47.048;15.390;2024-01-06T08:55:35;5.70;;;3.83;;
12758;SDS011;20944;47.048;15.390;2024-01-06T08:58:03;9.23;;;4.40;;
12758;SDS011;20944;47.048;15.390;2024-01-06T09:00:33;6.90;;;3.73;;
12758;SDS011;20944;47.048;15.390;2024-01-06T09:03:02;8.67;;;3.93;;
12758;SDS011;20944;47.048;15.390;2024-01-06T09:05:30;4.27;;;3.23;;
12758;SDS011;20944;47.048;15.390;2024-01-06T09:08:00;6.03;;;3.50;;
12758;SDS011;20944;47.048;15.390;2024-01-06T09:10:29;8.30;;;3.40;;
12758;SDS011;20944;47.048;15.390;2024-01-06T09:12:58;5.50;;;3.67;;
12758;SDS011;20944;47.048;15.390;2024-01-06T09:15:26;7.10;;;3.53;;
12758;SDS011;20944;47.048;15.390;2024-01-06T09:17:56;5.77;;;3.80;;
12758;SDS011;20944;47.048;15.390;2024-01-06T09:20:25;5.13;;;3.33;;
12758;SDS011;20944;47.048;15.390;2024-01-06T09:22:54;6.17;;;4.00;;
12758;SDS011;20944;47.048;15.390;2024-01-06T09:25:22;6.73;;;3.20;;
12758;SDS011;20944;47.048;15.390;2024-01-06T09:27:51;8.77;;;4.47;;
12758;SDS011;20944;47.048;15.390;2024-01-06T09:30:20;7.57;;;3.70;;
12758;SDS011;20944;47.048;15.390;2024-01-06T09:32:48;10.97;;;4.13;;
12758;SDS011;20944;47.048;15.390;2024-01-06T09:35:18;10.13;;;3.80;;
12758;SDS011;20944;47.048;15.390;2024-01-06T09:37:47;7.40;;;4.37;;
12758;SDS011;20944;47.048;15.390;2024-01-06T09:40:17;6.67;;;3.33;;
12758;SDS011;20944;47.048;15.390;2024-01-06T09:42:49;7.33;;;3.33;;
12758;SDS011;20944;47.048;15.390;2024-01-06T09:45:18;7.77;;;4.27;;
12758;SDS011;20944;47.048;15.390;2024-01-06T09:47:48;9.00;;;3.63;;
12758;SDS011;20944;47.048;15.390;2024-01-06T09:50:19;5.83;;;3.73;;
12758;SDS011;20944;47.048;15.390;2024-01-06T09:52:48;7.07;;;4.27;;
12758;SDS011;20944;47.048;15.390;2024-01-06T09:55:22;6.90;;;5.07;;
12758;SDS011;20944;47.048;15.390;2024-01-06T09:57:53;10.50;;;4.13;;
12758;SDS011;20944;47.048;15.390;2024-01-06T10:00:22;5.10;;;4.30;;
12758;SDS011;20944;47.048;15.390;2024-01-06T10:02:50;6.17;;;4.30;;
12758;SDS011;20944;47.048;15.390;2024-01-06T10:05:20;7.87;;;4.50;;
12758;SDS011;20944;47.048;15.390;2024-01-06T10:07:49;5.70;;;4.03;;
12758;SDS011;20944;47.048;15.390;2024-01-06T10:10:18;6.40;;;4.10;;
12758;SDS011;20944;47.048;15.390;2024-01-06T10:12:46;10.57;;;4.77;;
12758;SDS011;20944;47.048;15.390;2024-01-06T10:15:15;7.87;;;4.83;;
12758;SDS011;20944;47.048;15.390;2024-01-06T10:17:43;9.13;;;4.60;;
12758;SDS011;20944;47.048;15.390;2024-01-06T10:20:12;6.67;;;4.27;;
12758;SDS011;20944;47.048;15.390;2024-01-06T10:22:43;7.93;;;4.43;;
12758;SDS011;20944;47.048;15.390;2024-01-06T10:25:12;8.80;;;5.00;;
12758;SDS011;20944;47.048;15.390;2024-01-06T10:27:41;7.30;;;5.03;;
12758;SDS011;20944;47.048;15.390;2024-01-06T10:30:10;14.43;;;4.83;;
12758;SDS011;20944;47.048;15.390;2024-01-06T10:32:41;10.13;;;5.63;;
12758;SDS011;20944;47.048;15.390;2024-01-06T10:35:09;7.73;;;4.83;;
12758;SDS011;20944;47.048;15.390;2024-01-06T10:37:38;10.77;;;5.30;;
12758;SDS011;20944;47.048;15.390;2024-01-06T10:40:12;8.70;;;5.30;;
12758;SDS011;20944;47.048;15.390;2024-01-06T10:42:42;11.80;;;5.57;;
12758;SDS011;20944;47.048;15.390;2024-01-06T10:45:13;8.77;;;4.97;;
12758;SDS011;20944;47.048;15.390;2024-01-06T10:47:43;10.23;;;4.90;;
12758;SDS011;20944;47.048;15.390;2024-01-06T10:50:17;7.70;;;5.17;;
12758;SDS011;20944;47.048;15.390;2024-01-06T10:52:50;10.37;;;5.47;;
12758;SDS011;20944;47.048;15.390;2024-01-06T10:55:20;10.03;;;5.27;;
12758;SDS011;20944;47.048;15.390;2024-01-06T10:57:49;12.83;;;7.37;;
12758;SDS011;20944;47.048;15.390;2024-01-06T11:00:19;10.60;;;6.27;;
12758;SDS011;20944;47.048;15.390;2024-01-06T11:02:48;11.00;;;6.33;;
12758;SDS011;20944;47.048;15.390;2024-01-06T11:05:20;14.90;;;6.10;;
12758;SDS011;20944;47.048;15.390;2024-01-06T11:07:51;12.30;;;6.73;;
12758;SDS011;20944;47.048;15.390;2024-01-06T11:10:26;13.47;;;6.30;;
12758;SDS011;20944;47.048;15.390;2024-01-06T11:13:08;11.30;;;7.23;;
12758;SDS011;20944;47.048;15.390;2024-01-06T11:15:38;11.40;;;6.80;;
12758;SDS011;20944;47.048;15.390;2024-01-06T11:18:08;10.17;;;6.60;;
12758;SDS011;20944;47.048;15.390;2024-01-06T11:20:38;12.93;;;6.87;;
12758;SDS011;20944;47.048;15.390;2024-01-06T11:23:29;9.87;;;6.43;;
12758;SDS011;20944;47.048;15.390;2024-01-06T11:26:01;12.60;;;6.93;;
12758;SDS011;20944;47.048;15.390;2024-01-06T11:28:31;9.03;;;6.30;;
12758;SDS011;20944;47.048;15.390;2024-01-06T11:31:10;14.77;;;7.47;;
12758;SDS011;20944;47.048;15.390;2024-01-06T11:33:42;12.13;;;7.43;;
12758;SDS011;20944;47.048;15.390;2024-01-06T11:36:11;9.63;;;6.57;;
12758;SDS011;20944;47.048;15.390;2024-01-06T11:38:42;9.77;;;6.33;;
12758;SDS011;20944;47.048;15.390;2024-01-06T11:44:17;14.13;;;6.63;;
12758;SDS011;20944;47.048;15.390;2024-01-06T11:46:47;10.00;;;6.73;;
12758;SDS011;20944;47.048;15.390;2024-01-06T11:49:19;9.13;;;5.97;;
12758;SDS011;20944;47.048;15.390;2024-01-06T11:51:49;9.80;;;5.97;;
12758;SDS011;20944;47.048;15.390;2024-01-06T11:54:19;10.40;;;5.30;;
12758;SDS011;20944;47.048;15.390;2024-01-06T11:56:50;13.97;;;7.13;;
12758;SDS011;20944;47.048;15.390;2024-01-06T11:59:21;11.20;;;6.77;;
12758;SDS011;20944;47.048;15.390;2024-01-06T12:01:50;10.53;;;7.43;;
12758;SDS011;20944;47.048;15.390;2024-01-06T12:04:19;11.80;;;7.10;;
12758;SDS011;20944;47.048;15.390;2024-01-06T12:06:52;10.90;;;7.10;;
12758;SDS011;20944;47.048;15.390;2024-01-06T12:09:23;11.40;;;6.30;;
12758;SDS011;20944;47.048;15.390;2024-01-06T12:12:00;11.70;;;7.13;;
12758;SDS011;20944;47.048;15.390;2024-01-06T12:14:31;11.53;;;6.33;;
12758;SDS011;20944;47.048;15.390;2024-01-06T12:17:00;13.83;;;6.57;;
12758;SDS011;20944;47.048;15.390;2024-01-06T12:19:31;9.90;;;6.10;;
12758;SDS011;20944;47.048;15.390;2024-01-06T12:22:06;10.40;;;5.93;;
12758;SDS011;20944;47.048;15.390;2024-01-06T12:24:36;10.30;;;6.37;;
12758;SDS011;20944;47.048;15.390;2024-01-06T12:27:06;12.17;;;7.57;;
12758;SDS011;20944;47.048;15.390;2024-01-06T12:29:37;13.23;;;7.03;;
12758;SDS011;20944;47.048;15.390;2024-01-06T12:32:07;11.23;;;6.77;;
12758;SDS011;20944;47.048;15.390;2024-01-06T12:34:36;11.60;;;7.07;;
12758;SDS011;20944;47.048;15.390;2024-01-06T12:37:06;16.13;;;7.17;;
12758;SDS011;20944;47.048;15.390;2024-01-06T12:39:36;11.67;;;6.73;;
12758;SDS011;20944;47.048;15.390;2024-01-06T12:42:05;10.13;;;6.67;;
12758;SDS011;20944;47.048;15.390;2024-01-06T12:44:36;12.67;;;7.40;;
12758;SDS011;20944;47.048;15.390;2024-01-06T12:47:06;11.50;;;7.07;;
12758;SDS011;20944;47.048;15.390;2024-01-06T12:49:36;10.53;;;5.77;;
12758;SDS011;20944;47.048;15.390;2024-01-06T12:52:05;8.27;;;5.57;;
12758;SDS011;20944;47.048;15.390;2024-01-06T12:54:36;10.77;;;5.07;;
12758;SDS011;20944;47.048;15.390;2024-01-06T12:57:12;6.20;;;3.17;;
12758;SDS011;20944;47.048;15.390;2024-01-06T12:59:41;3.67;;;1.57;;
12758;SDS011;20944;47.048;15.390;2024-01-06T13:02:11;0.40;;;0.30;;
12758;SDS011;20944;47.048;15.390;2024-01-06T13:04:39;0.70;;;0.43;;
12758;SDS011;20944;47.048;15.390;2024-01-06T13:07:07;0.63;;;0.30;;
12758;SDS011;20944;47.048;15.390;2024-01-06T13:09:38;0.67;;;0.43;;
12758;SDS011;20944;47.048;15.390;2024-01-06T13:12:07;0.40;;;0.40;;
12758;SDS011;20944;47.048;15.390;2024-01-06T13:14:36;0.70;;;0.30;;
12758;SDS011;20944;47.048;15.390;2024-01-06T13:17:06;0.50;;;0.23;;
12758;SDS011;20944;47.048;15.390;2024-01-06T13:19:36;0.23;;;0.20;;
12758;SDS011;20944;47.048;15.390;2024-01-06T13:22:05;0.37;;;0.20;;
12758;SDS011;20944;47.048;15.390;2024-01-06T13:24:34;0.43;;;0.20;;
12758;SDS011;20944;47.048;15.390;2024-01-06T13:27:07;0.70;;;0.20;;
12758;SDS011;20944;47.048;15.390;2024-01-06T13:29:36;0.40;;;0.40;;
12758;SDS011;20944;47.048;15.390;2024-01-06T13:32:07;1.37;;;0.30;;
12758;SDS011;20944;47.048;15.390;2024-01-06T13:34:38;1.50;;;0.30;;
12758;SDS011;20944;47.048;15.390;2024-01-06T13:37:07;1.30;;;0.23;;
12758;SDS011;20944;47.048;15.390;2024-01-06T13:39:36;0.77;;;0.27;;
12758;SDS011;20944;47.048;15.390;2024-01-06T13:42:06;1.57;;;0.20;;
12758;SDS011;20944;47.048;15.390;2024-01-06T13:44:35;0.40;;;0.30;;
12758;SDS011;20944;47.048;15.390;2024-01-06T13:47:04;0.33;;;0.13;;
12758;SDS011;20944;47.048;15.390;2024-01-06T13:49:34;1.33;;;0.10;;
12758;SDS011;20944;47.048;15.390;2024-01-06T13:52:03;0.20;;;0.20;;
12758;SDS011;20944;47.048;15.390;2024-01-06T13:54:34;0.10;;;0.00;;
12758;SDS011;20944;47.048;15.390;2024-01-06T13:57:04;0.30;;;0.20;;
12758;SDS011;20944;47.048;15.390;2024-01-06T13:59:35;0.83;;;0.30;;
12758;SDS011;20944;47.048;15.390;2024-01-06T14:02:08;0.63;;;0.20;;
12758;SDS011;20944;47.048;15.390;2024-01-06T14:04:38;0.20;;;0.20;;
12758;SDS011;20944;47.048;15.390;2024-01-06T14:07:07;0.17;;;0.10;;
12758;SDS011;20944;47.048;15.390;2024-01-06T14:09:37;0.23;;;0.23;;
12758;SDS011;20944;47.048;15.390;2024-01-06T14:12:06;0.17;;;0.13;;
12758;SDS011;20944;47.048;15.390;2024-01-06T14:14:37;0.53;;;0.20;;
12758;SDS011;20944;47.048;15.390;2024-01-06T14:17:05;0.10;;;0.10;;
12758;SDS011;20944;47.048;15.390;2024-01-06T14:19:34;0.20;;;0.10;;
12758;SDS011;20944;47.048;15.390;2024-01-06T14:22:02;0.07;;;0.07;;
12758;SDS011;20944;47.048;15.390;2024-01-06T14:24:32;0.00;;;0.00;;
12758;SDS011;20944;47.048;15.390;2024-01-06T14:27:03;0.10;;;0.10;;
12758;SDS011;20944;47.048;15.390;2024-01-06T14:29:31;0.03;;;0.00;;
12758;SDS011;20944;47.048;15.390;2024-01-06T14:32:01;1.03;;;0.10;;
12758;SDS011;20944;47.048;15.390;2024-01-06T14:34:30;0.10;;;0.10;;
12758;SDS011;20944;47.048;15.390;2024-01-06T14:36:59;0.73;;;0.10;;
12758;SDS011;20944;47.048;15.390;2024-01-06T14:39:27;0.00;;;0.00;;
12758;SDS011;20944;47.048;15.390;2024-01-06T14:41:56;1.87;;;0.10;;
12758;SDS011;20944;47.048;15.390;2024-01-06T14:44:24;0.10;;;0.10;;
12758;SDS011;20944;47.048;15.390;2024-01-06T14:46:55;0.10;;;0.10;;
12758;SDS011;20944;47.048;15.390;2024-01-06T14:49:25;0.07;;;0.00;;